Flight Track Log - Related Links

Times and Time Zones

All times are in EDT time to prevent confusion due to time zone crossing. See the LAN932 flight status page for this flight to view local times or setup timezone preferences in your user account.

Time Position Orientation Groundspeed Altitude Reporting Facility
EDT Latitude Longitude Course Direction KTS MPH feet Rate Location/Type
Tue 02:59:50 PM -33.7620 -70.7810 176° South 394 453 12,200  Level FlightAware ADS-B
Tue 03:00:24 PM -33.8240 -70.7750 175° South 408 470 13,700 2,632 Climbing FlightAware ADS-B
Tue 03:00:47 PM -33.8640 -70.7500 153° Southeast 421 484 14,700 2,516 Climbing FlightAware ADS-B
Tue 03:00:55 PM -33.8750 -70.7370 136° Southeast 426 490 15,000 2,400 Climbing FlightAware ADS-B
Tue 03:01:22 PM -33.8960 -70.6810 114° Southeast 420 483 16,100 2,060 Climbing FlightAware ADS-B
Tue 03:02:02 PM -33.8830 -70.5910 80° East 409 471 17,300 1,888 Climbing FlightAware ADS-B
Tue 03:02:51 PM -33.8410 -70.4880 64° Northeast 432 497 18,900 2,360 Climbing FlightAware ADS-B
Tue 03:03:31 PM -33.8070 -70.3940 66° East 438 504 20,800 2,750 Climbing FlightAware ADS-B
Tue 03:04:03 PM -33.7820 -70.3210 68° East 439 505 22,200 2,483 Climbing FlightAware ADS-B
Tue 03:04:29 PM -33.7660 -70.2630 72° East 455 524 23,200 2,344 Climbing FlightAware ADS-B
Tue 03:05:07 PM -33.7720 -70.1650 94° East 475 547 24,700 2,345 Climbing FlightAware ADS-B
Tue 03:05:56 PM -33.7860 -70.0400 98° East 474 545 26,600 1,277 Climbing FlightAware ADS-B
Tue 03:06:41 PM -33.7960 -69.9430 97° East 474 545 26,700 74 Climbing FlightAware ADS-B
Tue 03:07:17 PM -33.8040 -69.8630 97° East 474 545 26,700  Level FlightAware ADS-B
Tue 03:07:53 PM -33.8120 -69.7830 97° East 474 545 26,700  Level FlightAware ADS-B
Tue 03:08:30 PM -33.8200 -69.7000 97° East 474 545 26,700  Level FlightAware ADS-B
Tue 03:09:06 PM -33.8290 -69.6200 98° East 474 545 26,700  Level FlightAware ADS-B
Tue 03:09:42 PM -33.8370 -69.5400 97° East 474 545 26,700 131 Level FlightAware ADS-B
Tue 03:11:23 PM -33.8670 -69.2150 96° East 453 521 27,000 120 Climbing FlightAware ADS-B
Tue 03:12:12 PM -33.8800 -69.0750 96° East 450 518 27,000  Level FlightAware ADS-B
Tue 03:13:08 PM -33.8920 -68.9460 96° East 450 518 27,000  Level FlightAware ADS-B
Tue 03:13:49 PM -33.9010 -68.8470 96° East 455 524 27,000  Level FlightAware ADS-B
Tue 03:14:26 PM -33.9080 -68.7680 96° East 455 524 27,000  Level FlightAware ADS-B
Tue 03:15:03 PM -33.9150 -68.6880 96° East 455 524 27,000  Level FlightAware ADS-B
Tue 03:15:37 PM -33.7740 -68.6800 North 456 525 27,000  Level FlightAware ADS-B
Tue 03:15:57 PM -33.7420 -68.6440 43° Northeast 389 448 27,000  Level FlightAware ADS-B
Tue 03:16:44 PM -33.6840 -68.5580 51° Northeast 407 468 27,000  Level FlightAware ADS-B
Tue 03:17:22 PM -33.6420 -68.4970 50° Northeast 404 465 27,000  Level FlightAware ADS-B
Tue 03:17:53 PM -33.6080 -68.4480 50° Northeast 406 467 27,000 92 Level FlightAware ADS-B
Tue 03:18:27 PM -33.5620 -68.3820 50° Northeast 406 467 27,100  Climbing FlightAware ADS-B
Tue 03:19:08 PM -33.5120 -68.3110 50° Northeast 404 465 27,000 -65 Descending FlightAware ADS-B
Tue 03:19:59 PM -33.4600 -68.2370 50° Northeast 401 461 27,000  Level FlightAware ADS-B
Tue 03:20:33 PM -33.4100 -68.1660 50° Northeast 401 461 27,000 -171 Level FlightAware ADS-B
Tue 03:21:09 PM -33.3700 -68.1090 50° Northeast 410 472 26,800 -986 Descending FlightAware ADS-B
Tue 03:21:46 PM -33.3220 -68.0410 50° Northeast 401 461 25,800 -1,853 Descending FlightAware ADS-B
Tue 03:22:17 PM -33.2850 -67.9890 50° Northeast 401 461 24,700 -2,294 Descending FlightAware ADS-B
Tue 03:22:54 PM -33.2410 -67.9270 50° Northeast 403 464 23,200 -2,250 Descending FlightAware ADS-B
Tue 03:23:29 PM -33.1960 -67.8830 39° Northeast 403 464 22,000 -1,925 Descending FlightAware ADS-B
Tue 03:23:47 PM -33.1740 -67.8750 17° North 360 414 21,500 -526 Descending FlightAware ADS-B
Tue 03:24:26 PM -33.1210 -67.8580 15° North 360 414 21,500 -2,644 Level FlightAware ADS-B
Tue 03:24:46 PM -33.0830 -67.9120 310° West 333 383 18,900 -2,600 Descending FlightAware ADS-B
Tue 03:25:26 PM -33.0450 -67.9550 317° Northwest 333 383 18,900 -3,000 Level FlightAware ADS-B
Tue 03:25:36 PM -33.0500 -67.9980 262° West 334 384 16,400 -5,415 Descending FlightAware ADS-B
Tue 03:26:07 PM -33.0370 -68.0450 288° West 321 369 15,200 -1,029 Descending FlightAware ADS-B
Tue 03:26:46 PM -33.0230 -68.1010 287° West 321 369 15,200 -2,122 Level FlightAware ADS-B
Tue 03:27:29 PM -32.9990 -68.1840 289° West 298 343 12,300 -2,923 Descending FlightAware ADS-B
Tue 03:28:04 PM -32.9850 -68.2370 287° West 290 334 11,400 -2,029 Descending FlightAware ADS-B
Tue 03:28:37 PM -32.9720 -68.2850 288° West 286 329 10,000 -2,500 Descending FlightAware ADS-B
Tue 03:29:04 PM -32.9610 -68.3250 288° West 283 326 8,900 -2,471 Descending FlightAware ADS-B
Tue 03:29:28 PM -32.9510 -68.3610 288° West 282 325 7,900 -2,571 Descending FlightAware ADS-B
Tue 03:29:39 PM -32.9470 -68.3760 288° West 282 325 7,400 -2,432 Descending FlightAware ADS-B
Tue 03:30:05 PM -32.9370 -68.4120 288° West 282 325 6,400 -1,680 Descending FlightAware ADS-B
Tue 03:30:29 PM -32.9270 -68.4490 288° West 265 305 6,000 -533 Descending FlightAware ADS-B
Tue 03:30:50 PM -32.9190 -68.4780 288° West 251 289 6,000 -913 Level FlightAware ADS-B
Tue 03:31:15 PM -32.9100 -68.5110 288° West 248 285 5,300 -1,600 Descending FlightAware ADS-B
Tue 03:31:35 PM -32.9030 -68.5340 290° West 249 287 4,800 -1,600 Descending FlightAware ADS-B
Tue 03:31:45 PM -32.8990 -68.5500 287° West 249 287 4,500 -1,200 Descending FlightAware ADS-B
Tue 03:32:10 PM -32.8900 -68.5820 289° West 248 285 4,100 -533 Descending FlightAware ADS-B
Tue 03:32:30 PM -32.8830 -68.6060 289° West 233 268 4,100  Level FlightAware ADS-B
Tue 03:32:50 PM -32.8770 -68.6300 287° West 232 267 4,100  Level FlightAware ADS-B
Tue 03:33:15 PM -32.8680 -68.6600 290° West 215 247 4,100  Level FlightAware ADS-B
Tue 03:33:20 PM -32.8670 -68.6630 292° West 211 243 4,100  Level FlightAware ADS-B
Tue 03:33:45 PM -32.8600 -68.6900 287° West 178 205 4,100  Level FlightAware ADS-B
Tue 03:34:05 PM -32.8550 -68.7090 287° West 171 197 4,100 -143 Level FlightAware ADS-B
Tue 03:34:27 PM -32.8500 -68.7260 289° West 168 193 4,000 -171 Descending FlightAware ADS-B
Tue 03:34:40 PM -32.8450 -68.7380 296° West 168 193 4,000  Level FlightAware ADS-B
Tue 03:34:50 PM -32.8400 -68.7440 315° West 169 194 4,000  Level FlightAware ADS-B
Tue 03:34:55 PM -32.8360 -68.7470 328° Northwest 170 196 4,000  Level FlightAware ADS-B
Tue 03:35:05 PM -32.8280 -68.7490 348° North 170 196 4,000 -171 Level FlightAware ADS-B
Tue 03:35:30 PM -32.8080 -68.7490 360° North 169 194 3,900 -133 Descending FlightAware ADS-B
Tue 03:35:50 PM -32.7930 -68.7480 North 170 196 3,900 150 Level FlightAware ADS-B
Tue 03:36:10 PM -32.7770 -68.7470 North 167 192 4,000 133 Climbing FlightAware ADS-B
Tue 03:36:35 PM -32.7620 -68.7580 328° Northwest 159 183 4,000 -171 Level FlightAware ADS-B
Tue 03:36:45 PM -32.7600 -68.7660 287° West 155 178 3,900 -514 Descending FlightAware ADS-B
Tue 03:37:10 PM -32.7640 -68.7850 256° West 144 166 3,700 -600 Descending FlightAware ADS-B
Tue 03:37:15 PM -32.7660 -68.7880 232° Southwest 143 165 3,600 -1,200 Descending FlightAware ADS-B
Tue 03:37:20 PM -32.7690 -68.7900 209° Southwest 140 161 3,500 -800 Descending FlightAware ADS-B
Tue 03:37:30 PM -32.7750 -68.7920 196° South 138 159 3,400 -600 Descending FlightAware ADS-B
Tue 03:38:00 PM -32.7940 -68.7920 180° South 142 163 3,100 -720 Descending FlightAware ADS-B
Tue 03:38:20 PM -32.8080 -68.7930 183° South 139 160 2,800 -750 Descending FlightAware ADS-B
Tue 03:38:40 PM -32.8210 -68.7930 180° South 142 163 2,600 -600 Descending FlightAware ADS-B
Tue 03:39:00 PM -32.8310 -68.7930 180° South 110 127 -7,800 Descending FlightAware ADS-B

Login

Don't have an account? Register now (free) for customized features, flight alerts, and more!